createdAt,value
2024-02-07T00:02:03.073Z,14.98
2024-02-07T00:04:30.401Z,14.99
2024-02-07T00:06:57.596Z,14.95
2024-02-07T00:09:24.795Z,14.90
2024-02-07T00:11:51.894Z,14.88
2024-02-07T00:14:19.427Z,14.89
2024-02-07T00:16:46.534Z,14.86
2024-02-07T00:19:13.676Z,14.82
2024-02-07T00:21:40.878Z,14.79
2024-02-07T00:24:08.160Z,14.77
2024-02-07T00:26:38.402Z,14.75
2024-02-07T00:29:05.433Z,14.73
2024-02-07T00:31:32.500Z,14.74
2024-02-07T00:33:59.623Z,14.73
2024-02-07T00:36:26.737Z,14.71
2024-02-07T00:38:54.166Z,14.68
2024-02-07T00:41:25.655Z,14.68
2024-02-07T00:43:56.258Z,14.66
2024-02-07T00:46:23.917Z,14.63
2024-02-07T00:48:51.060Z,14.62
2024-02-07T00:51:18.153Z,14.60
2024-02-07T00:53:45.274Z,14.60
2024-02-07T00:56:12.456Z,14.57
2024-02-07T00:58:40.450Z,14.57
2024-02-07T01:01:07.653Z,14.53
2024-02-07T01:03:34.744Z,14.55
2024-02-07T01:06:02.280Z,14.53
2024-02-07T01:08:29.607Z,14.55
2024-02-07T01:10:56.717Z,14.53
2024-02-07T01:13:23.795Z,14.53
2024-02-07T01:15:50.865Z,14.47
2024-02-07T01:18:18.510Z,14.48
2024-02-07T01:20:45.706Z,14.46
2024-02-07T01:23:12.698Z,14.44
2024-02-07T01:25:39.918Z,14.46
2024-02-07T01:28:07.111Z,14.43
2024-02-07T01:30:34.253Z,14.43
2024-02-07T01:33:01.360Z,14.42
2024-02-07T01:35:31.745Z,14.42
2024-02-07T01:38:09.226Z,14.44
2024-02-07T01:40:43.922Z,14.39
2024-02-07T01:43:12.967Z,14.39
2024-02-07T01:45:41.145Z,14.38
2024-02-07T01:48:09.528Z,14.36
2024-02-07T01:50:39.785Z,14.35
2024-02-07T01:53:08.984Z,14.33
2024-02-07T01:55:36.801Z,14.32
2024-02-07T01:58:05.182Z,14.29
2024-02-07T02:00:33.465Z,14.28
2024-02-07T02:03:00.695Z,14.25
2024-02-07T02:05:27.717Z,14.25
2024-02-07T02:07:55.088Z,14.20
2024-02-07T02:10:22.429Z,14.22
2024-02-07T02:12:49.655Z,14.21
2024-02-07T02:15:17.040Z,14.19
2024-02-07T02:17:44.152Z,14.20
2024-02-07T02:20:11.897Z,14.18
2024-02-07T02:23:16.052Z,14.16
2024-02-07T02:26:01.640Z,14.15
2024-02-07T02:28:37.742Z,14.12
2024-02-07T02:31:08.991Z,14.11
2024-02-07T02:33:39.973Z,14.09
2024-02-07T02:36:07.941Z,14.07
2024-02-07T02:38:38.805Z,14.06
2024-02-07T02:41:08.982Z,14.03
2024-02-07T02:43:38.701Z,14.02
2024-02-07T02:46:06.118Z,13.99
2024-02-07T02:48:33.205Z,14.00
2024-02-07T02:51:02.036Z,13.97
2024-02-07T02:53:33.255Z,13.95
2024-02-07T02:56:01.281Z,13.94
2024-02-07T02:58:36.890Z,13.93
2024-02-07T03:01:11.920Z,13.88
2024-02-07T03:03:39.947Z,13.87
2024-02-07T03:06:20.598Z,13.86
2024-02-07T03:08:56.260Z,13.81
2024-02-07T03:11:24.631Z,13.79
2024-02-07T03:13:52.426Z,13.75
2024-02-07T03:16:20.240Z,13.72
2024-02-07T03:18:47.490Z,13.73
2024-02-07T03:21:14.783Z,13.69
2024-02-07T03:23:42.463Z,13.66
2024-02-07T03:26:11.189Z,13.65
2024-02-07T03:28:38.933Z,13.63
2024-02-07T03:31:06.920Z,13.61
2024-02-07T03:33:34.329Z,13.57
2024-02-07T03:36:01.478Z,13.56
2024-02-07T03:38:31.243Z,13.56
2024-02-07T03:40:59.000Z,13.53
2024-02-07T03:43:28.453Z,13.50
2024-02-07T03:45:55.791Z,13.48
2024-02-07T03:48:25.403Z,13.45
2024-02-07T03:50:52.890Z,13.42
2024-02-07T03:53:20.862Z,13.42
2024-02-07T03:55:49.902Z,13.41
2024-02-07T03:58:17.354Z,13.40
2024-02-07T04:00:45.162Z,13.35
2024-02-07T04:03:12.202Z,13.33
2024-02-07T04:05:39.386Z,13.34
2024-02-07T04:08:07.023Z,13.31
2024-02-07T04:10:43.781Z,13.26
2024-02-07T04:13:11.794Z,13.24
2024-02-07T04:15:57.962Z,13.17
2024-02-07T04:18:43.599Z,13.15
2024-02-07T04:21:29.718Z,13.09
2024-02-07T04:24:15.570Z,13.04
2024-02-07T04:27:00.996Z,12.98
2024-02-07T04:29:46.813Z,12.95
2024-02-07T04:32:32.601Z,12.91
2024-02-07T04:35:18.476Z,12.88
2024-02-07T04:38:03.972Z,12.86
2024-02-07T04:40:49.777Z,12.83
2024-02-07T04:43:35.619Z,12.83
2024-02-07T04:46:21.542Z,12.82
2024-02-07T04:49:06.916Z,12.81
2024-02-07T04:51:52.790Z,12.78
2024-02-07T04:54:38.555Z,12.74
2024-02-07T04:57:24.309Z,12.71
2024-02-07T05:00:09.746Z,12.70
2024-02-07T05:02:55.433Z,12.66
2024-02-07T05:05:41.217Z,12.63
2024-02-07T05:08:26.950Z,12.61
2024-02-07T05:11:12.724Z,12.57
2024-02-07T05:13:58.560Z,12.55
2024-02-07T05:16:26.676Z,12.51
2024-02-07T05:18:53.873Z,12.50
2024-02-07T05:21:21.046Z,12.40
2024-02-07T05:23:48.130Z,12.40
2024-02-07T05:26:19.183Z,12.36
2024-02-07T05:28:46.717Z,12.33
2024-02-07T05:31:13.885Z,12.21
2024-02-07T05:33:41.490Z,12.25
2024-02-07T05:36:09.805Z,12.22
2024-02-07T05:38:36.857Z,12.19
2024-02-07T05:41:04.138Z,12.13
2024-02-07T05:43:31.314Z,12.16
2024-02-07T05:45:58.423Z,12.14
2024-02-07T05:48:25.471Z,12.16
2024-02-07T05:50:52.569Z,12.20
2024-02-07T05:53:19.619Z,12.18
2024-02-07T05:55:46.785Z,12.11
2024-02-07T05:58:13.892Z,12.13
2024-02-07T06:00:42.150Z,12.12
2024-02-07T06:03:09.506Z,12.12
2024-02-07T06:05:36.547Z,12.13
2024-02-07T06:08:05.536Z,12.11
2024-02-07T06:10:33.220Z,12.08
2024-02-07T06:13:00.339Z,12.06
2024-02-07T06:15:27.333Z,12.01
2024-02-07T06:17:54.341Z,11.94
2024-02-07T06:20:21.694Z,11.91
2024-02-07T06:22:49.624Z,11.90
2024-02-07T06:25:17.475Z,11.93
2024-02-07T06:27:44.782Z,11.92
2024-02-07T06:30:12.348Z,11.92
2024-02-07T06:32:39.628Z,11.91
2024-02-07T06:35:07.372Z,11.82
2024-02-07T06:37:34.582Z,11.77
2024-02-07T06:40:01.762Z,11.74
2024-02-07T06:42:28.885Z,11.73
2024-02-07T06:44:55.868Z,11.72
2024-02-07T06:47:24.620Z,11.70
2024-02-07T06:49:51.752Z,11.69
2024-02-07T06:52:18.916Z,11.71
2024-02-07T06:54:47.525Z,11.73
2024-02-07T06:57:14.679Z,11.71
2024-02-07T06:59:41.814Z,11.70
2024-02-07T07:02:08.942Z,11.71
2024-02-07T07:04:36.177Z,11.76
2024-02-07T07:07:03.359Z,11.80
2024-02-07T07:09:30.417Z,11.85
2024-02-07T07:11:57.619Z,11.91
2024-02-07T07:14:24.756Z,11.96
2024-02-07T07:16:52.118Z,12.08
2024-02-07T07:19:19.444Z,12.13
2024-02-07T07:21:46.803Z,12.25
2024-02-07T07:24:13.855Z,12.41
2024-02-07T07:26:40.979Z,12.57
2024-02-07T07:29:08.135Z,12.66
2024-02-07T07:31:38.600Z,12.85
2024-02-07T07:34:05.904Z,12.97
2024-02-07T07:36:32.938Z,13.24
2024-02-07T07:39:00.035Z,13.49
2024-02-07T07:41:27.170Z,13.69
2024-02-07T07:43:54.727Z,13.97
2024-02-07T07:46:21.999Z,14.29
2024-02-07T07:48:49.305Z,14.60
2024-02-07T07:51:21.280Z,14.89
2024-02-07T07:53:49.323Z,15.12
2024-02-07T07:56:16.938Z,15.40
2024-02-07T07:58:52.470Z,15.72
2024-02-07T08:01:23.893Z,16.04
2024-02-07T08:03:55.968Z,16.34
2024-02-07T08:06:23.887Z,16.73
2024-02-07T08:08:51.218Z,17.11
2024-02-07T08:11:18.272Z,17.60
2024-02-07T08:13:45.290Z,18.25
2024-02-07T08:16:12.417Z,19.02
2024-02-07T08:18:39.618Z,19.87
2024-02-07T08:21:07.042Z,20.82
2024-02-07T08:23:34.101Z,21.69
2024-02-07T08:26:01.521Z,22.66
2024-02-07T08:28:28.692Z,23.62
2024-02-07T08:30:55.815Z,24.52
2024-02-07T08:33:22.983Z,25.48
2024-02-07T08:35:50.560Z,26.50
2024-02-07T08:38:17.787Z,27.47
2024-02-07T08:40:46.563Z,28.29
2024-02-07T08:43:14.036Z,29.11
2024-02-07T08:45:41.062Z,29.93
2024-02-07T08:48:09.032Z,30.61
2024-02-07T08:50:36.597Z,31.24
2024-02-07T08:53:03.879Z,32.04
2024-02-07T08:55:31.397Z,32.60
2024-02-07T08:58:00.682Z,33.16
2024-02-07T09:00:27.973Z,33.88
2024-02-07T09:02:56.016Z,34.36
2024-02-07T09:05:23.885Z,34.82
2024-02-07T09:07:51.344Z,35.45
2024-02-07T09:10:19.478Z,35.98
2024-02-07T09:12:46.646Z,36.65
2024-02-07T09:15:13.642Z,37.15
2024-02-07T09:17:40.783Z,37.37
2024-02-07T09:20:08.698Z,37.89
2024-02-07T09:22:38.911Z,38.19
2024-02-07T09:25:06.699Z,38.58
2024-02-07T09:27:36.355Z,38.69
2024-02-07T09:30:10.817Z,38.91
2024-02-07T09:32:43.243Z,39.24
2024-02-07T09:35:10.954Z,39.32
2024-02-07T09:37:38.513Z,39.45
2024-02-07T09:40:06.126Z,39.63
2024-02-07T09:42:38.971Z,39.78
2024-02-07T09:45:10.017Z,40.12
2024-02-07T09:47:54.274Z,40.08
2024-02-07T09:50:21.788Z,40.43
2024-02-07T09:52:49.722Z,40.60
2024-02-07T09:55:16.987Z,40.58
2024-02-07T09:57:44.182Z,40.48
2024-02-07T10:00:11.638Z,40.35
2024-02-07T10:02:44.683Z,40.55
2024-02-07T10:05:15.179Z,40.77
2024-02-07T10:07:44.417Z,40.78
2024-02-07T10:10:11.937Z,40.92
2024-02-07T10:12:39.222Z,40.42
2024-02-07T10:15:07.411Z,40.73
2024-02-07T10:17:34.520Z,41.06
2024-02-07T10:20:09.314Z,40.95
2024-02-07T10:22:40.698Z,40.97
2024-02-07T10:25:12.426Z,40.91
2024-02-07T10:27:40.291Z,40.82
2024-02-07T10:30:17.718Z,40.83
2024-02-07T10:32:47.192Z,40.91
2024-02-07T10:35:32.270Z,40.64
2024-02-07T10:37:59.403Z,40.37
2024-02-07T10:40:30.563Z,39.98
2024-02-07T10:42:59.041Z,40.03
2024-02-07T10:45:26.065Z,39.84
2024-02-07T10:47:54.243Z,39.58
2024-02-07T10:50:25.818Z,38.97
2024-02-07T10:52:53.166Z,38.79
2024-02-07T10:55:23.204Z,38.83
2024-02-07T10:57:57.173Z,38.73
2024-02-07T11:00:28.278Z,38.37
2024-02-07T11:02:56.510Z,37.67
2024-02-07T11:05:25.843Z,37.27
2024-02-07T11:07:53.283Z,35.76
2024-02-07T11:10:21.905Z,35.73
2024-02-07T11:12:49.610Z,36.10
2024-02-07T11:15:16.658Z,36.18
2024-02-07T11:17:43.917Z,35.66
2024-02-07T11:20:11.414Z,34.51
2024-02-07T11:22:47.896Z,32.35
2024-02-07T11:25:19.377Z,30.36
2024-02-07T11:27:46.869Z,28.90
2024-02-07T11:30:14.354Z,27.46
2024-02-07T11:32:41.541Z,26.65
2024-02-07T11:35:10.837Z,26.14
2024-02-07T11:37:40.932Z,25.51
2024-02-07T11:40:10.689Z,25.10
2024-02-07T11:42:39.909Z,24.99
2024-02-07T11:45:11.434Z,24.47
2024-02-07T11:47:43.876Z,24.34
2024-02-07T11:50:16.822Z,24.21
2024-02-07T11:52:47.085Z,23.99
2024-02-07T11:55:16.431Z,23.78
2024-02-07T11:57:49.620Z,23.38
2024-02-07T12:00:19.474Z,23.32
2024-02-07T12:02:51.079Z,23.13
2024-02-07T12:05:19.483Z,23.03
2024-02-07T12:07:51.875Z,23.02
2024-02-07T12:10:19.559Z,23.14
2024-02-07T12:12:52.825Z,23.36
2024-02-07T12:15:20.026Z,23.55
2024-02-07T12:17:47.876Z,23.53
2024-02-07T12:20:16.183Z,23.47
2024-02-07T12:22:43.445Z,23.57
2024-02-07T12:25:18.157Z,23.71
2024-02-07T12:27:48.146Z,23.81
2024-02-07T12:30:16.509Z,23.86
2024-02-07T12:32:43.825Z,23.99
2024-02-07T12:35:11.036Z,24.07
2024-02-07T12:37:40.355Z,24.11
2024-02-07T12:40:17.318Z,24.19
2024-02-07T12:42:45.553Z,24.16
2024-02-07T12:45:17.466Z,24.02
2024-02-07T12:47:45.001Z,24.03
2024-02-07T12:50:15.116Z,23.88
2024-02-07T12:52:42.348Z,23.72
2024-02-07T12:55:14.329Z,23.53
2024-02-07T12:57:41.496Z,23.17
2024-02-07T13:00:11.324Z,23.01
2024-02-07T13:02:49.904Z,22.99
2024-02-07T13:05:20.471Z,22.95
2024-02-07T13:07:48.055Z,22.92
2024-02-07T13:10:15.419Z,22.90
2024-02-07T13:12:43.179Z,22.70
2024-02-07T13:15:17.309Z,22.65
2024-02-07T13:17:49.882Z,22.54
2024-02-07T13:20:20.931Z,22.49
2024-02-07T13:22:53.429Z,22.35
2024-02-07T13:25:23.044Z,22.15
2024-02-07T13:27:50.088Z,22.05
2024-02-07T13:30:20.145Z,22.05
2024-02-07T13:32:47.626Z,21.86
2024-02-07T13:35:16.955Z,21.67
2024-02-07T13:37:44.305Z,21.45
2024-02-07T13:40:13.140Z,21.17
2024-02-07T13:42:40.364Z,21.15
2024-02-07T13:45:07.920Z,21.15
2024-02-07T13:47:35.807Z,21.14
2024-02-07T13:50:06.201Z,21.18
2024-02-07T13:52:34.553Z,21.19
2024-02-07T13:55:01.650Z,21.24
2024-02-07T13:57:32.974Z,21.22
2024-02-07T14:00:00.280Z,21.26
2024-02-07T14:02:34.029Z,21.20
2024-02-07T14:05:06.242Z,21.21
2024-02-07T14:07:34.088Z,21.08
2024-02-07T14:10:01.897Z,21.00
2024-02-07T14:12:31.274Z,20.84
2024-02-07T14:14:58.634Z,20.79
2024-02-07T14:17:25.797Z,20.91
2024-02-07T14:19:52.985Z,20.97
2024-02-07T14:22:20.323Z,21.02
2024-02-07T14:24:47.529Z,21.06
2024-02-07T14:27:14.773Z,20.95
2024-02-07T14:29:41.837Z,21.05
2024-02-07T14:32:10.345Z,21.09
2024-02-07T14:34:37.672Z,21.06
2024-02-07T14:37:05.525Z,21.11
2024-02-07T14:39:35.894Z,20.89
2024-02-07T14:42:03.126Z,20.69
2024-02-07T14:44:34.418Z,20.79
2024-02-07T14:47:04.123Z,20.79
2024-02-07T14:49:32.916Z,20.82
2024-02-07T14:52:05.532Z,20.84
2024-02-07T14:54:32.985Z,20.83
2024-02-07T14:57:00.278Z,20.65
2024-02-07T14:59:27.548Z,20.62
2024-02-07T15:01:54.736Z,20.67
2024-02-07T15:04:25.054Z,20.74
2024-02-07T15:06:56.143Z,20.81
2024-02-07T15:09:23.499Z,20.79
2024-02-07T15:11:51.568Z,20.82
2024-02-07T15:14:18.741Z,20.84
2024-02-07T15:16:45.818Z,20.86
2024-02-07T15:19:12.852Z,20.83
2024-02-07T15:21:42.728Z,20.88
2024-02-07T15:24:10.064Z,20.89
2024-02-07T15:26:37.670Z,20.89
2024-02-07T15:29:05.017Z,20.96
2024-02-07T15:31:33.196Z,20.95
2024-02-07T15:34:00.327Z,20.95
2024-02-07T15:36:27.717Z,20.96
2024-02-07T15:38:54.734Z,20.96
2024-02-07T15:41:21.698Z,20.94
2024-02-07T15:43:49.198Z,20.96
2024-02-07T15:46:18.208Z,21.00
2024-02-07T15:48:51.051Z,20.98
2024-02-07T15:51:28.098Z,20.96
2024-02-07T15:53:55.368Z,20.96
2024-02-07T15:56:22.447Z,20.94
2024-02-07T15:58:49.663Z,20.98
2024-02-07T16:01:18.483Z,20.95
2024-02-07T16:03:46.238Z,20.94
2024-02-07T16:06:14.401Z,20.99
2024-02-07T16:08:49.573Z,20.91
2024-02-07T16:11:18.835Z,20.89
2024-02-07T16:13:56.883Z,20.84
2024-02-07T16:16:24.311Z,20.80
2024-02-07T16:18:51.858Z,20.86
2024-02-07T16:21:20.962Z,20.79
2024-02-07T16:23:48.476Z,20.73
2024-02-07T16:26:15.751Z,20.71
2024-02-07T16:28:42.854Z,20.63
2024-02-07T16:31:12.012Z,20.66
2024-02-07T16:33:39.435Z,20.62
2024-02-07T16:36:07.927Z,20.61
2024-02-07T16:38:47.778Z,20.56
2024-02-07T16:41:15.850Z,20.52
2024-02-07T16:43:45.508Z,20.43
2024-02-07T16:46:12.949Z,20.39
2024-02-07T16:48:42.423Z,20.31
2024-02-07T16:51:10.075Z,20.25
2024-02-07T16:53:39.378Z,20.18
2024-02-07T16:56:06.801Z,20.22
2024-02-07T16:58:34.255Z,20.13
2024-02-07T17:01:01.411Z,20.10
2024-02-07T17:03:29.440Z,20.09
2024-02-07T17:05:56.820Z,20.06
2024-02-07T17:08:23.873Z,20.01
2024-02-07T17:10:51.279Z,20.03
2024-02-07T17:13:21.297Z,20.02
2024-02-07T17:15:51.929Z,20.01
2024-02-07T17:18:19.383Z,20.02
2024-02-07T17:20:51.794Z,19.97
2024-02-07T17:23:22.149Z,19.99
2024-02-07T17:25:50.220Z,20.03
2024-02-07T17:28:17.450Z,19.99
2024-02-07T17:30:45.494Z,19.99
2024-02-07T17:33:12.808Z,19.91
2024-02-07T17:35:39.882Z,19.89
2024-02-07T17:38:07.012Z,19.86
2024-02-07T17:40:38.187Z,19.76
2024-02-07T17:43:07.411Z,19.71
2024-02-07T17:45:34.564Z,19.75
2024-02-07T17:48:02.066Z,19.84
2024-02-07T17:50:35.618Z,19.87
2024-02-07T17:53:05.174Z,19.85
2024-02-07T17:55:32.969Z,19.86
2024-02-07T17:58:00.077Z,19.82
2024-02-07T18:00:28.373Z,19.80
2024-02-07T18:02:57.702Z,19.78
2024-02-07T18:05:27.410Z,19.75
2024-02-07T18:07:56.980Z,19.74
2024-02-07T18:10:24.589Z,19.64
2024-02-07T18:12:56.321Z,19.63
2024-02-07T18:15:36.233Z,19.62
2024-02-07T18:18:05.291Z,19.59
2024-02-07T18:20:39.073Z,19.61
2024-02-07T18:23:06.254Z,19.55
2024-02-07T18:25:36.242Z,19.48
2024-02-07T18:28:12.433Z,19.49
2024-02-07T18:30:48.462Z,19.42
2024-02-07T18:33:15.626Z,19.40
2024-02-07T18:35:42.746Z,19.36
2024-02-07T18:38:09.932Z,19.39
2024-02-07T18:40:37.327Z,19.41
2024-02-07T18:43:04.646Z,19.45
2024-02-07T18:45:31.694Z,19.39
2024-02-07T18:48:04.286Z,19.33
2024-02-07T18:50:41.598Z,19.27
2024-02-07T18:53:19.517Z,19.28
2024-02-07T18:55:48.405Z,19.31
2024-02-07T18:58:16.212Z,19.33
2024-02-07T19:00:47.106Z,19.29
2024-02-07T19:03:15.102Z,19.31
2024-02-07T19:05:42.706Z,19.22
2024-02-07T19:08:12.118Z,19.17
2024-02-07T19:10:39.570Z,19.08
2024-02-07T19:13:07.932Z,19.10
2024-02-07T19:15:35.734Z,19.06
2024-02-07T19:18:03.332Z,19.02
2024-02-07T19:20:30.719Z,18.93
2024-02-07T19:23:00.798Z,18.97
2024-02-07T19:25:33.235Z,18.96
2024-02-07T19:28:00.524Z,18.94
2024-02-07T19:30:28.096Z,18.95
2024-02-07T19:32:55.204Z,18.91
2024-02-07T19:35:22.578Z,18.94
2024-02-07T19:37:50.291Z,19.00
2024-02-07T19:40:17.847Z,19.02
2024-02-07T19:42:45.034Z,18.96
2024-02-07T19:45:12.310Z,18.89
2024-02-07T19:47:39.440Z,18.92
2024-02-07T19:50:09.350Z,18.94
2024-02-07T19:52:37.976Z,18.97
2024-02-07T19:55:12.129Z,18.91
2024-02-07T19:57:39.627Z,18.85
2024-02-07T20:00:07.459Z,18.82
2024-02-07T20:02:38.714Z,18.76
2024-02-07T20:05:06.278Z,18.70
2024-02-07T20:07:33.349Z,18.62
2024-02-07T20:10:03.502Z,18.62
2024-02-07T20:12:31.342Z,18.68
2024-02-07T20:14:59.603Z,18.67
2024-02-07T20:17:27.162Z,18.68
2024-02-07T20:19:54.213Z,18.71
2024-02-07T20:22:21.554Z,18.72
2024-02-07T20:24:48.556Z,18.71
2024-02-07T20:27:15.642Z,18.69
2024-02-07T20:29:42.657Z,18.68
2024-02-07T20:32:09.720Z,18.75
2024-02-07T20:34:40.168Z,18.70
2024-02-07T20:37:07.272Z,18.64
2024-02-07T20:39:36.245Z,18.67
2024-02-07T20:42:03.559Z,18.59
2024-02-07T20:44:32.864Z,18.52
2024-02-07T20:47:01.095Z,18.38
2024-02-07T20:49:28.857Z,18.37
2024-02-07T20:51:56.425Z,18.30
2024-02-07T20:54:23.499Z,18.33
2024-02-07T20:56:52.370Z,18.30
2024-02-07T20:59:19.364Z,18.28
2024-02-07T21:01:46.370Z,18.32
2024-02-07T21:04:13.575Z,18.28
2024-02-07T21:06:40.711Z,18.26
2024-02-07T21:09:08.130Z,18.19
2024-02-07T21:11:35.470Z,18.09
2024-02-07T21:14:03.476Z,18.08
2024-02-07T21:16:30.775Z,18.03
2024-02-07T21:18:58.269Z,18.00
2024-02-07T21:21:25.342Z,17.86
2024-02-07T21:23:52.369Z,17.86
2024-02-07T21:26:19.390Z,17.85
2024-02-07T21:28:46.566Z,17.81
2024-02-07T21:31:13.761Z,17.78
2024-02-07T21:33:40.936Z,17.73
2024-02-07T21:36:08.497Z,17.69
2024-02-07T21:38:35.554Z,17.63
2024-02-07T21:41:02.620Z,17.66
2024-02-07T21:43:29.676Z,17.62
2024-02-07T21:45:57.108Z,17.68
2024-02-07T21:48:26.261Z,17.64
2024-02-07T21:50:53.370Z,17.64
2024-02-07T21:53:20.507Z,17.60
2024-02-07T21:55:47.641Z,17.58
2024-02-07T21:58:16.860Z,17.57
2024-02-07T22:00:51.167Z,17.57
2024-02-07T22:03:19.023Z,17.63
2024-02-07T22:05:46.010Z,17.60
2024-02-07T22:08:13.188Z,17.60
2024-02-07T22:10:40.463Z,17.57
2024-02-07T22:13:07.820Z,17.61
2024-02-07T22:15:35.010Z,17.59
2024-02-07T22:18:02.179Z,17.62
2024-02-07T22:20:29.311Z,17.62
2024-02-07T22:22:56.460Z,17.67
2024-02-07T22:25:23.604Z,17.59
2024-02-07T22:27:50.901Z,17.64
2024-02-07T22:30:18.018Z,17.67
2024-02-07T22:32:51.763Z,17.63
2024-02-07T22:35:19.534Z,17.62
2024-02-07T22:37:47.196Z,17.60
2024-02-07T22:40:16.635Z,17.57
2024-02-07T22:42:43.715Z,17.57
2024-02-07T22:45:11.089Z,17.50
2024-02-07T22:47:38.334Z,17.49
2024-02-07T22:50:06.213Z,17.49
2024-02-07T22:52:39.304Z,17.45
2024-02-07T22:55:06.632Z,17.45
2024-02-07T22:57:36.416Z,17.42
2024-02-07T23:00:04.375Z,17.45
2024-02-07T23:02:31.424Z,17.45
2024-02-07T23:05:00.002Z,17.45
2024-02-07T23:07:29.843Z,17.44
2024-02-07T23:09:57.079Z,17.43
2024-02-07T23:12:24.069Z,17.44
2024-02-07T23:14:53.845Z,17.40
2024-02-07T23:17:21.257Z,17.32
2024-02-07T23:19:48.275Z,17.33
2024-02-07T23:22:15.904Z,17.30
2024-02-07T23:24:43.046Z,17.27
2024-02-07T23:27:10.008Z,17.23
2024-02-07T23:29:37.050Z,17.21
2024-02-07T23:32:04.621Z,17.13
2024-02-07T23:34:32.054Z,17.12
2024-02-07T23:36:59.127Z,17.13
2024-02-07T23:39:26.146Z,17.16
2024-02-07T23:41:53.442Z,17.16
2024-02-07T23:44:20.555Z,17.18
2024-02-07T23:46:47.625Z,17.14
2024-02-07T23:49:15.033Z,17.12
2024-02-07T23:51:42.053Z,17.08
2024-02-07T23:54:11.993Z,17.07
2024-02-07T23:56:41.962Z,17.05
2024-02-07T23:59:09.506Z,17.05
